sensor_id;sensor_type;location;lat;lon;timestamp;P1;durP1;ratioP1;P2;durP2;ratioP2
1224;SDS011;602;48.000;7.840;2023-03-31T00:01:51;2.80;;;2.17;;
1224;SDS011;602;48.000;7.840;2023-03-31T00:04:18;2.50;;;1.30;;
1224;SDS011;602;48.000;7.840;2023-03-31T00:06:48;2.90;;;1.40;;
1224;SDS011;602;48.000;7.840;2023-03-31T00:09:18;1.43;;;0.97;;
1224;SDS011;602;48.000;7.840;2023-03-31T00:11:46;1.27;;;1.17;;
1224;SDS011;602;48.000;7.840;2023-03-31T00:14:13;1.23;;;1.13;;
1224;SDS011;602;48.000;7.840;2023-03-31T00:16:42;1.50;;;1.30;;
1224;SDS011;602;48.000;7.840;2023-03-31T00:19:10;1.37;;;1.27;;
1224;SDS011;602;48.000;7.840;2023-03-31T00:21:42;1.30;;;0.87;;
1224;SDS011;602;48.000;7.840;2023-03-31T00:24:10;0.77;;;0.77;;
1224;SDS011;602;48.000;7.840;2023-03-31T00:26:37;2.07;;;1.40;;
1224;SDS011;602;48.000;7.840;2023-03-31T00:29:05;1.53;;;1.43;;
1224;SDS011;602;48.000;7.840;2023-03-31T00:31:33;1.10;;;1.00;;
1224;SDS011;602;48.000;7.840;2023-03-31T00:34:00;1.70;;;1.60;;
1224;SDS011;602;48.000;7.840;2023-03-31T00:36:28;2.27;;;1.80;;
1224;SDS011;602;48.000;7.840;2023-03-31T00:38:56;2.30;;;1.50;;
1224;SDS011;602;48.000;7.840;2023-03-31T00:41:25;1.83;;;1.60;;
1224;SDS011;602;48.000;7.840;2023-03-31T00:44:01;1.40;;;1.30;;
1224;SDS011;602;48.000;7.840;2023-03-31T00:46:37;2.10;;;1.73;;
1224;SDS011;602;48.000;7.840;2023-03-31T00:49:11;1.67;;;1.57;;
1224;SDS011;602;48.000;7.840;2023-03-31T00:51:43;1.47;;;1.37;;
1224;SDS011;602;48.000;7.840;2023-03-31T00:54:11;2.40;;;1.20;;
1224;SDS011;602;48.000;7.840;2023-03-31T00:56:40;2.43;;;1.40;;
1224;SDS011;602;48.000;7.840;2023-03-31T00:59:12;1.97;;;1.77;;
1224;SDS011;602;48.000;7.840;2023-03-31T01:01:41;1.10;;;0.93;;
1224;SDS011;602;48.000;7.840;2023-03-31T01:04:11;1.40;;;1.30;;
1224;SDS011;602;48.000;7.840;2023-03-31T01:06:43;1.70;;;1.30;;
1224;SDS011;602;48.000;7.840;2023-03-31T01:09:21;1.50;;;1.20;;
1224;SDS011;602;48.000;7.840;2023-03-31T01:11:49;4.90;;;1.97;;
1224;SDS011;602;48.000;7.840;2023-03-31T01:14:16;1.73;;;1.63;;
1224;SDS011;602;48.000;7.840;2023-03-31T01:16:43;4.40;;;2.37;;
1224;SDS011;602;48.000;7.840;2023-03-31T01:19:12;1.73;;;1.63;;
1224;SDS011;602;48.000;7.840;2023-03-31T01:22:01;1.83;;;1.73;;
1224;SDS011;602;48.000;7.840;2023-03-31T01:28:17;1.67;;;1.57;;
1224;SDS011;602;48.000;7.840;2023-03-31T01:31:01;1.63;;;1.53;;
1224;SDS011;602;48.000;7.840;2023-03-31T01:37:01;1.60;;;1.50;;
1224;SDS011;602;48.000;7.840;2023-03-31T01:39:52;2.17;;;1.73;;
1224;SDS011;602;48.000;7.840;2023-03-31T01:42:41;3.90;;;1.63;;
1224;SDS011;602;48.000;7.840;2023-03-31T01:45:17;1.67;;;1.57;;
1224;SDS011;602;48.000;7.840;2023-03-31T01:47:52;1.77;;;1.60;;
1224;SDS011;602;48.000;7.840;2023-03-31T01:50:23;2.30;;;2.10;;
1224;SDS011;602;48.000;7.840;2023-03-31T01:52:55;1.53;;;1.40;;
1224;SDS011;602;48.000;7.840;2023-03-31T01:55:29;1.97;;;1.80;;
1224;SDS011;602;48.000;7.840;2023-03-31T01:58:02;1.70;;;1.60;;
1224;SDS011;602;48.000;7.840;2023-03-31T02:00:35;7.37;;;1.97;;
1224;SDS011;602;48.000;7.840;2023-03-31T02:03:07;1.07;;;1.00;;
1224;SDS011;602;48.000;7.840;2023-03-31T02:05:41;1.57;;;1.47;;
1224;SDS011;602;48.000;7.840;2023-03-31T02:08:12;2.17;;;1.97;;
1224;SDS011;602;48.000;7.840;2023-03-31T02:10:43;2.37;;;1.73;;
1224;SDS011;602;48.000;7.840;2023-03-31T02:13:11;1.63;;;1.17;;
1224;SDS011;602;48.000;7.840;2023-03-31T02:15:41;1.47;;;1.27;;
1224;SDS011;602;48.000;7.840;2023-03-31T02:18:12;1.87;;;1.50;;
1224;SDS011;602;48.000;7.840;2023-03-31T02:20:43;1.80;;;1.70;;
1224;SDS011;602;48.000;7.840;2023-03-31T02:23:15;1.67;;;1.57;;
1224;SDS011;602;48.000;7.840;2023-03-31T02:25:48;1.57;;;1.00;;
1224;SDS011;602;48.000;7.840;2023-03-31T02:28:17;3.20;;;1.70;;
1224;SDS011;602;48.000;7.840;2023-03-31T02:30:48;1.80;;;1.70;;
1224;SDS011;602;48.000;7.840;2023-03-31T02:33:20;2.50;;;1.67;;
1224;SDS011;602;48.000;7.840;2023-03-31T02:35:47;1.33;;;1.20;;
1224;SDS011;602;48.000;7.840;2023-03-31T02:38:14;2.67;;;1.60;;
1224;SDS011;602;48.000;7.840;2023-03-31T02:40:41;1.00;;;0.90;;
1224;SDS011;602;48.000;7.840;2023-03-31T02:43:09;3.13;;;1.97;;
1224;SDS011;602;48.000;7.840;2023-03-31T02:45:38;1.77;;;1.13;;
1224;SDS011;602;48.000;7.840;2023-03-31T02:48:08;1.40;;;1.30;;
1224;SDS011;602;48.000;7.840;2023-03-31T02:50:40;1.83;;;1.73;;
1224;SDS011;602;48.000;7.840;2023-03-31T02:53:19;1.43;;;1.20;;
1224;SDS011;602;48.000;7.840;2023-03-31T02:55:58;1.70;;;1.33;;
1224;SDS011;602;48.000;7.840;2023-03-31T02:58:43;1.57;;;1.47;;
1224;SDS011;602;48.000;7.840;2023-03-31T03:01:26;2.50;;;1.40;;
1224;SDS011;602;48.000;7.840;2023-03-31T03:04:16;2.53;;;1.80;;
1224;SDS011;602;48.000;7.840;2023-03-31T03:07:02;2.70;;;1.40;;
1224;SDS011;602;48.000;7.840;2023-03-31T03:09:39;4.07;;;1.43;;
1224;SDS011;602;48.000;7.840;2023-03-31T03:12:12;1.60;;;1.50;;
1224;SDS011;602;48.000;7.840;2023-03-31T03:14:48;2.50;;;1.50;;
1224;SDS011;602;48.000;7.840;2023-03-31T03:17:22;2.57;;;1.63;;
1224;SDS011;602;48.000;7.840;2023-03-31T03:19:51;1.80;;;1.53;;
1224;SDS011;602;48.000;7.840;2023-03-31T03:22:19;2.93;;;1.87;;
1224;SDS011;602;48.000;7.840;2023-03-31T03:24:47;1.37;;;1.20;;
1224;SDS011;602;48.000;7.840;2023-03-31T03:27:13;7.20;;;1.87;;
1224;SDS011;602;48.000;7.840;2023-03-31T03:29:40;1.77;;;1.67;;
1224;SDS011;602;48.000;7.840;2023-03-31T03:32:09;4.77;;;2.30;;
1224;SDS011;602;48.000;7.840;2023-03-31T03:34:36;3.43;;;1.60;;
1224;SDS011;602;48.000;7.840;2023-03-31T03:37:03;1.43;;;1.33;;
1224;SDS011;602;48.000;7.840;2023-03-31T03:39:31;1.77;;;1.67;;
1224;SDS011;602;48.000;7.840;2023-03-31T03:41:58;1.60;;;1.50;;
1224;SDS011;602;48.000;7.840;2023-03-31T03:44:25;1.63;;;1.53;;
1224;SDS011;602;48.000;7.840;2023-03-31T03:46:52;1.17;;;1.07;;
1224;SDS011;602;48.000;7.840;2023-03-31T03:49:20;1.67;;;1.53;;
1224;SDS011;602;48.000;7.840;2023-03-31T03:51:47;2.00;;;1.20;;
1224;SDS011;602;48.000;7.840;2023-03-31T03:54:14;2.00;;;1.00;;
1224;SDS011;602;48.000;7.840;2023-03-31T03:56:41;7.47;;;2.23;;
1224;SDS011;602;48.000;7.840;2023-03-31T03:59:09;2.50;;;2.30;;
1224;SDS011;602;48.000;7.840;2023-03-31T04:01:36;2.30;;;1.53;;
1224;SDS011;602;48.000;7.840;2023-03-31T04:04:03;1.93;;;1.77;;
1224;SDS011;602;48.000;7.840;2023-03-31T04:06:32;4.70;;;1.63;;
1224;SDS011;602;48.000;7.840;2023-03-31T04:08:58;1.70;;;1.27;;
1224;SDS011;602;48.000;7.840;2023-03-31T04:11:25;5.47;;;1.80;;
1224;SDS011;602;48.000;7.840;2023-03-31T04:13:53;2.33;;;2.10;;
1224;SDS011;602;48.000;7.840;2023-03-31T04:16:20;2.00;;;1.90;;
1224;SDS011;602;48.000;7.840;2023-03-31T04:18:47;1.10;;;1.00;;
1224;SDS011;602;48.000;7.840;2023-03-31T04:21:14;1.83;;;1.60;;
1224;SDS011;602;48.000;7.840;2023-03-31T04:23:48;1.57;;;1.00;;
1224;SDS011;602;48.000;7.840;2023-03-31T04:26:23;1.93;;;1.67;;
1224;SDS011;602;48.000;7.840;2023-03-31T04:28:55;1.97;;;1.87;;
1224;SDS011;602;48.000;7.840;2023-03-31T04:31:24;1.47;;;1.37;;
1224;SDS011;602;48.000;7.840;2023-03-31T04:33:54;2.23;;;2.03;;
1224;SDS011;602;48.000;7.840;2023-03-31T04:36:25;1.10;;;1.10;;
1224;SDS011;602;48.000;7.840;2023-03-31T04:38:54;2.33;;;1.77;;
1224;SDS011;602;48.000;7.840;2023-03-31T04:41:21;1.90;;;1.80;;
1224;SDS011;602;48.000;7.840;2023-03-31T04:43:49;2.03;;;1.50;;
1224;SDS011;602;48.000;7.840;2023-03-31T04:46:16;3.53;;;1.67;;
1224;SDS011;602;48.000;7.840;2023-03-31T04:48:42;1.83;;;1.60;;
1224;SDS011;602;48.000;7.840;2023-03-31T04:51:10;1.20;;;1.10;;
1224;SDS011;602;48.000;7.840;2023-03-31T04:53:39;2.00;;;1.60;;
1224;SDS011;602;48.000;7.840;2023-03-31T04:56:07;1.70;;;1.60;;
1224;SDS011;602;48.000;7.840;2023-03-31T04:58:34;1.87;;;1.77;;
1224;SDS011;602;48.000;7.840;2023-03-31T05:01:01;2.10;;;1.90;;
1224;SDS011;602;48.000;7.840;2023-03-31T05:03:30;1.87;;;1.50;;
1224;SDS011;602;48.000;7.840;2023-03-31T05:05:57;2.27;;;2.07;;
1224;SDS011;602;48.000;7.840;2023-03-31T05:08:24;1.93;;;1.83;;
1224;SDS011;602;48.000;7.840;2023-03-31T05:10:51;2.23;;;1.80;;
1224;SDS011;602;48.000;7.840;2023-03-31T05:13:19;2.10;;;1.90;;
1224;SDS011;602;48.000;7.840;2023-03-31T05:15:46;4.03;;;1.60;;
1224;SDS011;602;48.000;7.840;2023-03-31T05:18:14;2.97;;;2.13;;
1224;SDS011;602;48.000;7.840;2023-03-31T05:20:41;4.00;;;2.20;;
1224;SDS011;602;48.000;7.840;2023-03-31T05:23:08;1.67;;;1.57;;
1224;SDS011;602;48.000;7.840;2023-03-31T05:25:35;2.27;;;1.77;;
1224;SDS011;602;48.000;7.840;2023-03-31T05:28:02;2.30;;;2.03;;
1224;SDS011;602;48.000;7.840;2023-03-31T05:30:31;2.13;;;1.93;;
1224;SDS011;602;48.000;7.840;2023-03-31T05:32:58;2.13;;;1.83;;
1224;SDS011;602;48.000;7.840;2023-03-31T05:35:25;2.90;;;2.00;;
1224;SDS011;602;48.000;7.840;2023-03-31T05:37:53;2.63;;;1.43;;
1224;SDS011;602;48.000;7.840;2023-03-31T05:40:20;2.00;;;1.90;;
1224;SDS011;602;48.000;7.840;2023-03-31T05:42:47;4.07;;;2.80;;
1224;SDS011;602;48.000;7.840;2023-03-31T05:45:14;3.70;;;1.40;;
1224;SDS011;602;48.000;7.840;2023-03-31T05:47:43;1.40;;;1.20;;
1224;SDS011;602;48.000;7.840;2023-03-31T05:50:10;1.43;;;1.33;;
1224;SDS011;602;48.000;7.840;2023-03-31T05:52:36;1.97;;;1.47;;
1224;SDS011;602;48.000;7.840;2023-03-31T05:55:03;1.10;;;1.03;;
1224;SDS011;602;48.000;7.840;2023-03-31T05:57:31;1.20;;;1.10;;
1224;SDS011;602;48.000;7.840;2023-03-31T05:59:58;5.57;;;2.07;;
1224;SDS011;602;48.000;7.840;2023-03-31T06:02:25;2.33;;;2.13;;
1224;SDS011;602;48.000;7.840;2023-03-31T06:04:53;2.97;;;1.50;;
1224;SDS011;602;48.000;7.840;2023-03-31T06:07:20;2.00;;;1.73;;
1224;SDS011;602;48.000;7.840;2023-03-31T06:09:49;2.30;;;1.90;;
1224;SDS011;602;48.000;7.840;2023-03-31T06:12:16;7.80;;;1.50;;
1224;SDS011;602;48.000;7.840;2023-03-31T06:14:42;3.23;;;1.40;;
1224;SDS011;602;48.000;7.840;2023-03-31T06:17:09;2.87;;;2.67;;
1224;SDS011;602;48.000;7.840;2023-03-31T06:19:36;2.80;;;1.27;;
1224;SDS011;602;48.000;7.840;2023-03-31T06:22:05;1.80;;;1.70;;
1224;SDS011;602;48.000;7.840;2023-03-31T06:24:32;1.13;;;1.03;;
1224;SDS011;602;48.000;7.840;2023-03-31T06:26:59;0.63;;;0.60;;
1224;SDS011;602;48.000;7.840;2023-03-31T06:29:26;1.30;;;1.20;;
1224;SDS011;602;48.000;7.840;2023-03-31T06:31:53;2.40;;;1.37;;
1224;SDS011;602;48.000;7.840;2023-03-31T06:34:20;1.93;;;1.67;;
1224;SDS011;602;48.000;7.840;2023-03-31T06:36:46;1.10;;;1.00;;
1224;SDS011;602;48.000;7.840;2023-03-31T06:39:15;1.40;;;1.20;;
1224;SDS011;602;48.000;7.840;2023-03-31T06:41:42;0.57;;;0.57;;
1224;SDS011;602;48.000;7.840;2023-03-31T06:44:08;0.80;;;0.80;;
1224;SDS011;602;48.000;7.840;2023-03-31T06:46:35;2.50;;;1.50;;
1224;SDS011;602;48.000;7.840;2023-03-31T06:49:02;0.80;;;0.80;;
1224;SDS011;602;48.000;7.840;2023-03-31T06:51:29;0.87;;;0.80;;
1224;SDS011;602;48.000;7.840;2023-03-31T06:53:56;0.70;;;0.70;;
1224;SDS011;602;48.000;7.840;2023-03-31T06:56:24;1.10;;;1.00;;
1224;SDS011;602;48.000;7.840;2023-03-31T06:58:52;0.87;;;0.63;;
1224;SDS011;602;48.000;7.840;2023-03-31T07:01:19;2.77;;;1.33;;
1224;SDS011;602;48.000;7.840;2023-03-31T07:03:49;0.60;;;0.60;;
1224;SDS011;602;48.000;7.840;2023-03-31T07:06:16;0.53;;;0.53;;
1224;SDS011;602;48.000;7.840;2023-03-31T07:08:43;0.60;;;0.60;;
1224;SDS011;602;48.000;7.840;2023-03-31T07:11:09;1.53;;;0.80;;
1224;SDS011;602;48.000;7.840;2023-03-31T07:13:38;0.83;;;0.83;;
1224;SDS011;602;48.000;7.840;2023-03-31T07:16:05;0.80;;;0.50;;
1224;SDS011;602;48.000;7.840;2023-03-31T07:18:33;0.40;;;0.30;;
1224;SDS011;602;48.000;7.840;2023-03-31T07:21:02;0.87;;;0.60;;
1224;SDS011;602;48.000;7.840;2023-03-31T07:23:29;0.50;;;0.50;;
1224;SDS011;602;48.000;7.840;2023-03-31T07:25:56;0.77;;;0.50;;
1224;SDS011;602;48.000;7.840;2023-03-31T07:28:26;0.63;;;0.63;;
1224;SDS011;602;48.000;7.840;2023-03-31T07:30:54;0.50;;;0.50;;
1224;SDS011;602;48.000;7.840;2023-03-31T07:33:21;0.40;;;0.40;;
1224;SDS011;602;48.000;7.840;2023-03-31T07:35:48;0.50;;;0.40;;
1224;SDS011;602;48.000;7.840;2023-03-31T07:38:15;0.50;;;0.40;;
1224;SDS011;602;48.000;7.840;2023-03-31T07:40:42;0.50;;;0.50;;
1224;SDS011;602;48.000;7.840;2023-03-31T07:43:10;0.40;;;0.40;;
1224;SDS011;602;48.000;7.840;2023-03-31T07:45:38;3.20;;;0.50;;
1224;SDS011;602;48.000;7.840;2023-03-31T07:48:06;0.93;;;0.90;;
1224;SDS011;602;48.000;7.840;2023-03-31T07:50:33;0.60;;;0.60;;
1224;SDS011;602;48.000;7.840;2023-03-31T07:53:00;0.73;;;0.73;;
1224;SDS011;602;48.000;7.840;2023-03-31T07:55:27;0.40;;;0.40;;
1224;SDS011;602;48.000;7.840;2023-03-31T07:57:54;1.40;;;0.60;;
1224;SDS011;602;48.000;7.840;2023-03-31T08:00:22;1.60;;;0.50;;
1224;SDS011;602;48.000;7.840;2023-03-31T08:02:49;0.80;;;0.57;;
1224;SDS011;602;48.000;7.840;2023-03-31T08:05:18;1.80;;;0.70;;
1224;SDS011;602;48.000;7.840;2023-03-31T08:07:47;0.70;;;0.53;;
1224;SDS011;602;48.000;7.840;2023-03-31T08:10:16;0.70;;;0.70;;
1224;SDS011;602;48.000;7.840;2023-03-31T08:12:45;0.70;;;0.70;;
1224;SDS011;602;48.000;7.840;2023-03-31T08:15:12;1.10;;;1.07;;
1224;SDS011;602;48.000;7.840;2023-03-31T08:17:39;0.50;;;0.50;;
1224;SDS011;602;48.000;7.840;2023-03-31T08:20:06;0.47;;;0.43;;
1224;SDS011;602;48.000;7.840;2023-03-31T08:22:35;1.00;;;0.43;;
1224;SDS011;602;48.000;7.840;2023-03-31T08:25:03;0.67;;;0.50;;
1224;SDS011;602;48.000;7.840;2023-03-31T08:27:32;0.80;;;0.73;;
1224;SDS011;602;48.000;7.840;2023-03-31T08:29:59;0.50;;;0.50;;
1224;SDS011;602;48.000;7.840;2023-03-31T08:32:28;0.63;;;0.53;;
1224;SDS011;602;48.000;7.840;2023-03-31T08:34:56;0.53;;;0.53;;
1224;SDS011;602;48.000;7.840;2023-03-31T08:39:51;1.33;;;0.70;;
1224;SDS011;602;48.000;7.840;2023-03-31T08:42:19;0.70;;;0.67;;
1224;SDS011;602;48.000;7.840;2023-03-31T08:44:52;0.80;;;0.70;;
1224;SDS011;602;48.000;7.840;2023-03-31T08:47:23;0.43;;;0.43;;
1224;SDS011;602;48.000;7.840;2023-03-31T08:49:53;4.73;;;1.03;;
1224;SDS011;602;48.000;7.840;2023-03-31T08:52:23;0.50;;;0.50;;
1224;SDS011;602;48.000;7.840;2023-03-31T08:54:57;1.73;;;0.80;;
1224;SDS011;602;48.000;7.840;2023-03-31T08:57:27;0.93;;;0.50;;
1224;SDS011;602;48.000;7.840;2023-03-31T08:59:59;0.53;;;0.53;;
1224;SDS011;602;48.000;7.840;2023-03-31T09:02:31;0.57;;;0.57;;
1224;SDS011;602;48.000;7.840;2023-03-31T09:05:07;0.70;;;0.50;;
1224;SDS011;602;48.000;7.840;2023-03-31T09:08:05;2.33;;;0.50;;
1224;SDS011;602;48.000;7.840;2023-03-31T09:10:46;0.40;;;0.40;;
1224;SDS011;602;48.000;7.840;2023-03-31T09:13:23;0.40;;;0.40;;
1224;SDS011;602;48.000;7.840;2023-03-31T09:16:07;0.43;;;0.43;;
1224;SDS011;602;48.000;7.840;2023-03-31T09:18:39;2.30;;;0.97;;
1224;SDS011;602;48.000;7.840;2023-03-31T09:21:12;3.03;;;0.83;;
1224;SDS011;602;48.000;7.840;2023-03-31T09:23:44;0.50;;;0.50;;
1224;SDS011;602;48.000;7.840;2023-03-31T09:26:19;0.40;;;0.40;;
1224;SDS011;602;48.000;7.840;2023-03-31T09:28:50;0.70;;;0.43;;
1224;SDS011;602;48.000;7.840;2023-03-31T09:31:19;0.50;;;0.50;;
1224;SDS011;602;48.000;7.840;2023-03-31T09:33:47;0.60;;;0.40;;
1224;SDS011;602;48.000;7.840;2023-03-31T09:36:19;1.03;;;0.67;;
1224;SDS011;602;48.000;7.840;2023-03-31T09:38:47;0.73;;;0.60;;
1224;SDS011;602;48.000;7.840;2023-03-31T09:41:15;0.40;;;0.40;;
1224;SDS011;602;48.000;7.840;2023-03-31T09:43:45;2.40;;;0.60;;
1224;SDS011;602;48.000;7.840;2023-03-31T09:46:17;4.13;;;0.73;;
1224;SDS011;602;48.000;7.840;2023-03-31T09:48:51;0.73;;;0.73;;
1224;SDS011;602;48.000;7.840;2023-03-31T09:51:25;0.87;;;0.53;;
1224;SDS011;602;48.000;7.840;2023-03-31T09:53:55;0.57;;;0.50;;
1224;SDS011;602;48.000;7.840;2023-03-31T09:56:33;0.53;;;0.40;;
1224;SDS011;602;48.000;7.840;2023-03-31T09:59:14;0.97;;;0.50;;
1224;SDS011;602;48.000;7.840;2023-03-31T10:01:43;0.40;;;0.40;;
1224;SDS011;602;48.000;7.840;2023-03-31T10:04:15;1.23;;;0.40;;
1224;SDS011;602;48.000;7.840;2023-03-31T10:06:46;1.70;;;0.60;;
1224;SDS011;602;48.000;7.840;2023-03-31T10:09:13;1.30;;;0.60;;
1224;SDS011;602;48.000;7.840;2023-03-31T10:11:50;4.37;;;0.50;;
1224;SDS011;602;48.000;7.840;2023-03-31T10:14:24;1.27;;;0.70;;
1224;SDS011;602;48.000;7.840;2023-03-31T10:16:57;0.40;;;0.40;;
1224;SDS011;602;48.000;7.840;2023-03-31T10:19:28;3.33;;;1.17;;
1224;SDS011;602;48.000;7.840;2023-03-31T10:21:57;0.90;;;0.50;;
1224;SDS011;602;48.000;7.840;2023-03-31T10:24:25;0.80;;;0.77;;
1224;SDS011;602;48.000;7.840;2023-03-31T10:27:01;0.60;;;0.57;;
1224;SDS011;602;48.000;7.840;2023-03-31T10:29:29;0.33;;;0.30;;
1224;SDS011;602;48.000;7.840;2023-03-31T10:32:01;1.60;;;0.60;;
1224;SDS011;602;48.000;7.840;2023-03-31T10:34:29;0.40;;;0.30;;
1224;SDS011;602;48.000;7.840;2023-03-31T10:36:57;0.40;;;0.37;;
1224;SDS011;602;48.000;7.840;2023-03-31T10:39:27;0.30;;;0.30;;
1224;SDS011;602;48.000;7.840;2023-03-31T10:41:57;0.67;;;0.67;;
1224;SDS011;602;48.000;7.840;2023-03-31T10:44:33;0.50;;;0.40;;
1224;SDS011;602;48.000;7.840;2023-03-31T10:47:03;0.30;;;0.20;;
1224;SDS011;602;48.000;7.840;2023-03-31T10:49:36;0.30;;;0.30;;
1224;SDS011;602;48.000;7.840;2023-03-31T10:52:08;0.50;;;0.47;;
1224;SDS011;602;48.000;7.840;2023-03-31T10:54:45;0.40;;;0.30;;
1224;SDS011;602;48.000;7.840;2023-03-31T10:57:13;0.30;;;0.30;;
1224;SDS011;602;48.000;7.840;2023-03-31T10:59:44;0.80;;;0.40;;
1224;SDS011;602;48.000;7.840;2023-03-31T11:02:32;1.23;;;0.80;;
1224;SDS011;602;48.000;7.840;2023-03-31T11:05:13;0.70;;;0.50;;
1224;SDS011;602;48.000;7.840;2023-03-31T11:07:46;1.40;;;0.47;;
1224;SDS011;602;48.000;7.840;2023-03-31T11:10:28;2.00;;;1.33;;
1224;SDS011;602;48.000;7.840;2023-03-31T11:13:08;1.97;;;0.80;;
1224;SDS011;602;48.000;7.840;2023-03-31T11:15:44;3.13;;;0.67;;
1224;SDS011;602;48.000;7.840;2023-03-31T11:18:29;0.40;;;0.40;;
1224;SDS011;602;48.000;7.840;2023-03-31T11:21:03;4.30;;;0.67;;
1224;SDS011;602;48.000;7.840;2023-03-31T11:23:39;5.83;;;0.50;;
1224;SDS011;602;48.000;7.840;2023-03-31T11:26:08;0.40;;;0.30;;
1224;SDS011;602;48.000;7.840;2023-03-31T11:31:38;1.40;;;0.63;;
1224;SDS011;602;48.000;7.840;2023-03-31T11:34:18;2.20;;;0.53;;
1224;SDS011;602;48.000;7.840;2023-03-31T11:37:06;0.40;;;0.40;;
1224;SDS011;602;48.000;7.840;2023-03-31T11:39:44;1.80;;;0.80;;
1224;SDS011;602;48.000;7.840;2023-03-31T11:42:20;0.40;;;0.40;;
1224;SDS011;602;48.000;7.840;2023-03-31T11:44:51;1.33;;;0.80;;
1224;SDS011;602;48.000;7.840;2023-03-31T11:47:24;0.83;;;0.60;;
1224;SDS011;602;48.000;7.840;2023-03-31T11:49:55;2.90;;;1.00;;
1224;SDS011;602;48.000;7.840;2023-03-31T11:52:26;0.70;;;0.53;;
1224;SDS011;602;48.000;7.840;2023-03-31T11:54:55;0.93;;;0.90;;
1224;SDS011;602;48.000;7.840;2023-03-31T11:57:26;0.40;;;0.40;;
1224;SDS011;602;48.000;7.840;2023-03-31T11:59:57;0.40;;;0.30;;
1224;SDS011;602;48.000;7.840;2023-03-31T12:02:35;0.30;;;0.30;;
1224;SDS011;602;48.000;7.840;2023-03-31T12:05:09;0.47;;;0.30;;
1224;SDS011;602;48.000;7.840;2023-03-31T12:07:40;0.40;;;0.40;;
1224;SDS011;602;48.000;7.840;2023-03-31T12:10:12;0.80;;;0.30;;
1224;SDS011;602;48.000;7.840;2023-03-31T12:12:45;2.10;;;0.57;;
1224;SDS011;602;48.000;7.840;2023-03-31T12:15:18;0.30;;;0.20;;
1224;SDS011;602;48.000;7.840;2023-03-31T12:17:51;1.77;;;0.70;;
1224;SDS011;602;48.000;7.840;2023-03-31T12:20:24;0.80;;;0.53;;
1224;SDS011;602;48.000;7.840;2023-03-31T12:22:56;0.47;;;0.47;;
1224;SDS011;602;48.000;7.840;2023-03-31T12:25:25;0.40;;;0.30;;
1224;SDS011;602;48.000;7.840;2023-03-31T12:28:05;0.30;;;0.30;;
1224;SDS011;602;48.000;7.840;2023-03-31T12:30:32;0.67;;;0.40;;
1224;SDS011;602;48.000;7.840;2023-03-31T12:33:05;0.50;;;0.30;;
1224;SDS011;602;48.000;7.840;2023-03-31T12:35:40;0.40;;;0.30;;
1224;SDS011;602;48.000;7.840;2023-03-31T12:38:28;2.33;;;0.50;;
1224;SDS011;602;48.000;7.840;2023-03-31T12:41:14;0.53;;;0.53;;
1224;SDS011;602;48.000;7.840;2023-03-31T12:43:55;0.40;;;0.40;;
1224;SDS011;602;48.000;7.840;2023-03-31T12:46:52;0.60;;;0.50;;
1224;SDS011;602;48.000;7.840;2023-03-31T12:49:40;1.33;;;0.40;;
1224;SDS011;602;48.000;7.840;2023-03-31T12:52:19;0.30;;;0.30;;
1224;SDS011;602;48.000;7.840;2023-03-31T12:55:06;0.80;;;0.80;;
1224;SDS011;602;48.000;7.840;2023-03-31T13:01:03;0.90;;;0.37;;
1224;SDS011;602;48.000;7.840;2023-03-31T13:03:40;0.40;;;0.40;;
1224;SDS011;602;48.000;7.840;2023-03-31T13:06:11;0.50;;;0.50;;
1224;SDS011;602;48.000;7.840;2023-03-31T13:08:54;0.67;;;0.40;;
1224;SDS011;602;48.000;7.840;2023-03-31T13:11:22;0.37;;;0.37;;
1224;SDS011;602;48.000;7.840;2023-03-31T13:14:02;0.67;;;0.63;;
1224;SDS011;602;48.000;7.840;2023-03-31T13:16:32;0.30;;;0.30;;
1224;SDS011;602;48.000;7.840;2023-03-31T13:19:00;0.60;;;0.40;;
1224;SDS011;602;48.000;7.840;2023-03-31T13:21:29;1.67;;;1.37;;
1224;SDS011;602;48.000;7.840;2023-03-31T13:23:58;1.80;;;0.70;;
1224;SDS011;602;48.000;7.840;2023-03-31T13:26:37;0.30;;;0.30;;
1224;SDS011;602;48.000;7.840;2023-03-31T13:29:10;10.43;;;0.77;;
1224;SDS011;602;48.000;7.840;2023-03-31T13:34:48;1.77;;;1.67;;
1224;SDS011;602;48.000;7.840;2023-03-31T13:37:26;0.80;;;0.80;;
1224;SDS011;602;48.000;7.840;2023-03-31T13:40:29;0.40;;;0.40;;
1224;SDS011;602;48.000;7.840;2023-03-31T13:49:32;0.60;;;0.30;;
1224;SDS011;602;48.000;7.840;2023-03-31T13:52:15;0.40;;;0.30;;
1224;SDS011;602;48.000;7.840;2023-03-31T14:01:10;0.40;;;0.30;;
1224;SDS011;602;48.000;7.840;2023-03-31T14:03:54;0.30;;;0.30;;
1224;SDS011;602;48.000;7.840;2023-03-31T14:06:32;0.30;;;0.30;;
1224;SDS011;602;48.000;7.840;2023-03-31T14:09:04;0.30;;;0.27;;
1224;SDS011;602;48.000;7.840;2023-03-31T14:11:33;0.30;;;0.30;;
1224;SDS011;602;48.000;7.840;2023-03-31T14:14:00;0.30;;;0.30;;
1224;SDS011;602;48.000;7.840;2023-03-31T14:16:31;0.40;;;0.30;;
1224;SDS011;602;48.000;7.840;2023-03-31T14:19:05;0.30;;;0.30;;
1224;SDS011;602;48.000;7.840;2023-03-31T14:21:53;0.40;;;0.40;;
1224;SDS011;602;48.000;7.840;2023-03-31T14:24:29;1.10;;;0.80;;
1224;SDS011;602;48.000;7.840;2023-03-31T14:27:00;0.30;;;0.30;;
1224;SDS011;602;48.000;7.840;2023-03-31T14:29:34;0.30;;;0.30;;
1224;SDS011;602;48.000;7.840;2023-03-31T14:32:12;1.63;;;0.33;;
1224;SDS011;602;48.000;7.840;2023-03-31T14:34:49;0.30;;;0.30;;
1224;SDS011;602;48.000;7.840;2023-03-31T14:37:22;0.40;;;0.40;;
1224;SDS011;602;48.000;7.840;2023-03-31T14:39:50;0.40;;;0.40;;
1224;SDS011;602;48.000;7.840;2023-03-31T14:42:21;0.40;;;0.30;;
1224;SDS011;602;48.000;7.840;2023-03-31T14:44:54;0.30;;;0.20;;
1224;SDS011;602;48.000;7.840;2023-03-31T14:47:24;0.40;;;0.40;;
1224;SDS011;602;48.000;7.840;2023-03-31T14:49:59;0.40;;;0.30;;
1224;SDS011;602;48.000;7.840;2023-03-31T14:52:28;0.53;;;0.50;;
1224;SDS011;602;48.000;7.840;2023-03-31T14:54:57;1.10;;;1.00;;
1224;SDS011;602;48.000;7.840;2023-03-31T14:57:26;0.80;;;0.30;;
1224;SDS011;602;48.000;7.840;2023-03-31T14:59:57;0.30;;;0.20;;
1224;SDS011;602;48.000;7.840;2023-03-31T15:02:29;0.30;;;0.20;;
1224;SDS011;602;48.000;7.840;2023-03-31T15:04:58;0.40;;;0.30;;
1224;SDS011;602;48.000;7.840;2023-03-31T15:07:28;0.40;;;0.30;;
1224;SDS011;602;48.000;7.840;2023-03-31T15:09:55;0.40;;;0.40;;
1224;SDS011;602;48.000;7.840;2023-03-31T15:12:22;0.50;;;0.30;;
1224;SDS011;602;48.000;7.840;2023-03-31T15:14:50;0.30;;;0.30;;
1224;SDS011;602;48.000;7.840;2023-03-31T15:17:20;0.30;;;0.30;;
1224;SDS011;602;48.000;7.840;2023-03-31T15:19:54;1.60;;;0.67;;
1224;SDS011;602;48.000;7.840;2023-03-31T15:22:23;0.40;;;0.40;;
1224;SDS011;602;48.000;7.840;2023-03-31T15:24:51;0.50;;;0.30;;
1224;SDS011;602;48.000;7.840;2023-03-31T15:27:21;0.67;;;0.40;;
1224;SDS011;602;48.000;7.840;2023-03-31T15:29:56;0.40;;;0.30;;
1224;SDS011;602;48.000;7.840;2023-03-31T15:32:26;0.30;;;0.30;;
1224;SDS011;602;48.000;7.840;2023-03-31T15:34:56;0.50;;;0.40;;
1224;SDS011;602;48.000;7.840;2023-03-31T15:37:25;1.10;;;0.47;;
1224;SDS011;602;48.000;7.840;2023-03-31T15:39:57;0.50;;;0.50;;
1224;SDS011;602;48.000;7.840;2023-03-31T15:42:26;0.47;;;0.47;;
1224;SDS011;602;48.000;7.840;2023-03-31T15:44:54;1.17;;;0.40;;
1224;SDS011;602;48.000;7.840;2023-03-31T15:47:23;0.60;;;0.40;;
1224;SDS011;602;48.000;7.840;2023-03-31T15:49:56;0.70;;;0.60;;
1224;SDS011;602;48.000;7.840;2023-03-31T15:52:29;0.30;;;0.30;;
1224;SDS011;602;48.000;7.840;2023-03-31T15:54:59;0.70;;;0.33;;
1224;SDS011;602;48.000;7.840;2023-03-31T15:57:33;0.30;;;0.20;;
1224;SDS011;602;48.000;7.840;2023-03-31T16:00:01;0.40;;;0.40;;
1224;SDS011;602;48.000;7.840;2023-03-31T16:02:37;0.50;;;0.40;;
1224;SDS011;602;48.000;7.840;2023-03-31T16:05:15;0.80;;;0.40;;
1224;SDS011;602;48.000;7.840;2023-03-31T16:07:49;0.47;;;0.43;;
1224;SDS011;602;48.000;7.840;2023-03-31T16:10:16;1.90;;;0.30;;
1224;SDS011;602;48.000;7.840;2023-03-31T16:12:48;0.30;;;0.30;;
1224;SDS011;602;48.000;7.840;2023-03-31T16:15:18;0.83;;;0.53;;
1224;SDS011;602;48.000;7.840;2023-03-31T16:17:54;0.30;;;0.30;;
1224;SDS011;602;48.000;7.840;2023-03-31T16:20:25;0.30;;;0.20;;
1224;SDS011;602;48.000;7.840;2023-03-31T16:22:55;0.57;;;0.50;;
1224;SDS011;602;48.000;7.840;2023-03-31T16:25:24;1.27;;;0.60;;
1224;SDS011;602;48.000;7.840;2023-03-31T16:27:53;0.53;;;0.53;;